MA90 weather

Host Hotel Heliport
Boxborough, Massachusetts, United States

Public forecast

Using degrees Fahrenheit for public forecast. Weather courtesy of forecast.io.

Closest aviation weather report (METAR) to Host Hotel Heliport

Closest report is Fitchburg Municipal Airport, 10.3 nm (19.1 km) WNW. Retrieved 2020/01/19 07:09 UTC (6 minutes ago):

KFIT 190709Z AUTO 00000KT 3SM UP BR OVC009 M08/M10 A2967 RMK AO2 P0000 T10781100

Closest aviation forecast (TAF) to Host Hotel Heliport

Closest forecast is Laurence G Hanscom Field, 11.5 nm (21.2 km) E. Retrieved 2020/01/19 06:22 UTC (53 minutes ago):

TAF KBED 190520Z 1906/2006 32003KT 1SM -SN BR VV012 TEMPO 1906/1907 1/2SM SN FZFG OVC005 FM190900 23003KT P6SM -FZDZ OVC010 FM191000 24003KT P6SM -FZDZ OVC015 FM191400 27007KT P6SM SCT008 BKN250 FM200000 29010G18KT P6SM SCT060